createdAt,value
2019-02-25T00:00:37.371Z,4.33
2019-02-25T00:01:37.356Z,4.33
2019-02-25T00:02:37.347Z,4.25
2019-02-25T00:03:37.336Z,4.32
2019-02-25T00:04:37.328Z,4.37
2019-02-25T00:05:37.321Z,4.33
2019-02-25T00:06:37.308Z,4.32
2019-02-25T00:07:37.299Z,4.37
2019-02-25T00:08:37.283Z,4.40
2019-02-25T00:09:37.273Z,4.40
2019-02-25T00:10:37.262Z,4.39
2019-02-25T00:11:37.249Z,4.39
2019-02-25T00:12:37.243Z,4.37
2019-02-25T00:13:37.228Z,4.39
2019-02-25T00:14:37.217Z,4.34
2019-02-25T00:15:37.209Z,4.42
2019-02-25T00:16:37.193Z,4.39
2019-02-25T00:17:37.185Z,4.37
2019-02-25T00:18:37.175Z,4.33
2019-02-25T00:19:37.163Z,4.37
2019-02-25T00:20:37.154Z,4.52
2019-02-25T00:21:37.143Z,4.59
2019-02-25T00:22:37.130Z,4.77
2019-02-25T00:23:37.118Z,4.75
2019-02-25T00:24:37.110Z,4.85
2019-02-25T00:25:37.097Z,4.93
2019-02-25T00:26:37.083Z,4.97
2019-02-25T00:27:37.071Z,5.00
2019-02-25T00:28:37.064Z,5.03
2019-02-25T00:29:37.052Z,5.18
2019-02-25T00:30:37.050Z,5.15
2019-02-25T00:31:37.042Z,5.06
2019-02-25T00:32:37.028Z,4.94
2019-02-25T00:33:37.009Z,4.88
2019-02-25T00:34:36.998Z,4.85
2019-02-25T00:35:36.987Z,4.88
2019-02-25T00:36:36.976Z,4.83
2019-02-25T00:37:36.968Z,4.75
2019-02-25T00:38:36.953Z,4.91
2019-02-25T00:39:36.946Z,4.82
2019-02-25T00:40:36.936Z,4.76
2019-02-25T00:41:36.924Z,4.67
2019-02-25T00:43:36.900Z,4.61
2019-02-25T00:44:36.890Z,4.70
2019-02-25T00:46:36.871Z,4.95
2019-02-25T00:47:36.856Z,5.37
2019-02-25T00:48:36.847Z,5.42
2019-02-25T00:49:36.936Z,5.55
2019-02-25T00:50:36.821Z,5.95
2019-02-25T00:51:36.814Z,6.19
2019-02-25T00:52:36.800Z,6.57
2019-02-25T00:53:36.791Z,6.61
2019-02-25T00:57:36.747Z,8.47
2019-02-25T01:01:36.706Z,7.50
2019-02-25T01:06:36.646Z,8.84
2019-02-25T01:14:36.560Z,6.82
2019-02-25T01:15:36.551Z,6.65
2019-02-25T01:17:36.530Z,6.76
2019-02-25T01:18:36.516Z,6.52
2019-02-25T01:19:36.505Z,7.05
2019-02-25T01:20:36.496Z,7.35
2019-02-25T01:21:36.486Z,7.71
2019-02-25T01:22:36.475Z,7.95
2019-02-25T01:23:36.466Z,8.02
2019-02-25T01:24:36.449Z,8.11
2019-02-25T01:25:36.438Z,8.29
2019-02-25T01:26:36.429Z,8.65
2019-02-25T01:27:36.419Z,9.04
2019-02-25T01:28:36.412Z,9.27
2019-02-25T01:29:36.396Z,10.01
2019-02-25T01:30:36.395Z,10.18
2019-02-25T01:31:36.377Z,10.42
2019-02-25T01:32:36.366Z,10.19
2019-02-25T01:33:36.351Z,9.85
2019-02-25T01:34:36.343Z,10.28
2019-02-25T01:35:36.431Z,10.43
2019-02-25T01:36:36.320Z,9.86
2019-02-25T01:37:36.310Z,9.27
2019-02-25T01:38:36.298Z,8.60
2019-02-25T01:39:36.289Z,8.42
2019-02-25T01:40:36.280Z,8.83
2019-02-25T01:41:36.269Z,8.62
2019-02-25T01:42:36.254Z,8.39
2019-02-25T01:43:36.245Z,8.55
2019-02-25T01:44:36.233Z,9.06
2019-02-25T01:45:36.230Z,9.19
2019-02-25T01:46:36.212Z,8.75
2019-02-25T01:47:37.313Z,8.79
2019-02-25T01:48:36.187Z,8.60
2019-02-25T01:49:36.179Z,8.65
2019-02-25T01:50:36.269Z,9.24
2019-02-25T01:51:36.156Z,9.20
2019-02-25T01:52:36.142Z,9.08
2019-02-25T01:53:36.134Z,8.90
2019-02-25T01:54:36.123Z,8.69
2019-02-25T01:55:36.112Z,8.57
2019-02-25T01:56:36.104Z,8.90
2019-02-25T01:57:36.094Z,9.24
2019-02-25T01:58:36.079Z,9.47
2019-02-25T01:59:36.073Z,9.47
2019-02-25T02:00:36.059Z,9.22
2019-02-25T02:01:36.046Z,8.91
2019-02-25T02:02:36.034Z,8.78
2019-02-25T02:03:36.026Z,8.79
2019-02-25T02:04:36.013Z,9.04
2019-02-25T02:05:36.004Z,9.27
2019-02-25T02:06:35.996Z,9.38
2019-02-25T02:07:35.984Z,9.37
2019-02-25T02:08:35.971Z,9.42
2019-02-25T02:09:35.960Z,9.65
2019-02-25T02:10:35.947Z,10.04
2019-02-25T02:11:35.938Z,10.33
2019-02-25T02:12:35.930Z,11.44
2019-02-25T02:13:35.915Z,12.15
2019-02-25T02:14:35.904Z,12.38
2019-02-25T02:15:35.896Z,12.44
2019-02-25T02:16:35.883Z,12.41
2019-02-25T02:17:35.876Z,12.40
2019-02-25T02:18:35.857Z,12.44
2019-02-25T02:19:35.852Z,12.28
2019-02-25T02:20:35.838Z,11.61
2019-02-25T02:21:35.832Z,11.05
2019-02-25T02:22:35.815Z,10.88
2019-02-25T02:23:35.804Z,11.00
2019-02-25T02:24:35.794Z,10.98
2019-02-25T02:25:35.783Z,10.88
2019-02-25T02:26:35.775Z,10.44
2019-02-25T02:27:35.759Z,10.22
2019-02-25T02:28:35.753Z,10.43
2019-02-25T02:29:35.741Z,10.51
2019-02-25T02:30:35.730Z,10.44
2019-02-25T02:31:35.720Z,10.62
2019-02-25T02:32:35.715Z,10.98
2019-02-25T02:33:35.695Z,11.56
2019-02-25T02:34:35.687Z,12.25
2019-02-25T02:35:35.675Z,12.74
2019-02-25T02:36:35.663Z,13.12
2019-02-25T02:37:35.654Z,13.35
2019-02-25T02:38:35.660Z,13.53
2019-02-25T02:39:35.645Z,13.58
2019-02-25T02:40:35.716Z,14.01
2019-02-25T02:41:35.613Z,14.25
2019-02-25T02:42:35.600Z,14.14
2019-02-25T02:43:35.592Z,14.06
2019-02-25T02:44:35.578Z,13.78
2019-02-25T02:45:35.579Z,13.55
2019-02-25T02:46:35.560Z,13.50
2019-02-25T02:47:35.552Z,13.45
2019-02-25T02:48:35.538Z,13.37
2019-02-25T02:49:35.526Z,13.55
2019-02-25T02:50:35.523Z,13.54
2019-02-25T02:51:35.861Z,13.68
2019-02-25T02:52:35.494Z,13.66
2019-02-25T02:53:35.490Z,13.82
2019-02-25T02:54:35.475Z,14.17
2019-02-25T02:55:35.467Z,14.25
2019-02-25T02:56:35.449Z,14.27
2019-02-25T02:57:35.540Z,14.37
2019-02-25T02:58:35.430Z,14.52
2019-02-25T02:59:35.521Z,14.62
2019-02-25T03:00:35.406Z,14.62
2019-02-25T03:01:35.396Z,14.68
2019-02-25T03:02:35.385Z,14.69
2019-02-25T03:03:35.375Z,14.56
2019-02-25T03:04:35.360Z,14.64
2019-02-25T03:05:35.354Z,14.61
2019-02-25T03:06:35.341Z,14.53
2019-02-25T03:07:35.330Z,14.21
2019-02-25T03:08:35.320Z,13.79
2019-02-25T03:09:35.322Z,12.97
2019-02-25T03:10:35.300Z,12.26
2019-02-25T03:11:35.288Z,11.54
2019-02-25T03:12:35.275Z,11.21
2019-02-25T03:13:35.264Z,10.64
2019-02-25T03:14:35.256Z,10.07
2019-02-25T03:15:35.245Z,9.97
2019-02-25T03:16:35.231Z,10.36
2019-02-25T03:17:35.221Z,11.02
2019-02-25T03:18:35.213Z,11.92
2019-02-25T03:19:35.199Z,12.37
2019-02-25T03:20:35.188Z,12.71
2019-02-25T03:21:35.177Z,13.62
2019-02-25T03:22:35.166Z,14.10
2019-02-25T03:23:35.177Z,14.39
2019-02-25T03:25:03.027Z,14.93
2019-02-25T03:26:02.915Z,15.08
2019-02-25T03:27:02.908Z,15.23
2019-02-25T03:28:02.896Z,15.49
2019-02-25T03:29:02.886Z,15.52
2019-02-25T03:30:02.872Z,15.75
2019-02-25T03:31:02.864Z,15.74
2019-02-25T03:32:02.902Z,15.97
2019-02-25T03:33:02.843Z,16.12
2019-02-25T03:34:02.832Z,16.21
2019-02-25T03:35:02.822Z,16.48
2019-02-25T03:36:02.804Z,16.72
2019-02-25T03:37:02.795Z,16.87
2019-02-25T03:38:02.788Z,16.96
2019-02-25T03:39:02.777Z,17.10
2019-02-25T03:40:02.778Z,17.26
2019-02-25T03:41:02.752Z,17.35
2019-02-25T03:42:02.739Z,17.43
2019-02-25T03:43:02.728Z,17.46
2019-02-25T03:44:02.717Z,17.48
2019-02-25T03:45:02.711Z,17.61
2019-02-25T03:46:02.694Z,17.53
2019-02-25T03:47:02.687Z,17.44
2019-02-25T03:48:02.678Z,17.53
2019-02-25T03:49:02.663Z,17.68
2019-02-25T03:50:02.657Z,17.80
2019-02-25T03:51:02.655Z,18.05
2019-02-25T03:52:03.193Z,18.12
2019-02-25T03:53:02.619Z,18.37
2019-02-25T03:54:02.610Z,18.57
2019-02-25T03:55:02.604Z,18.67
2019-02-25T03:56:02.588Z,18.73
2019-02-25T03:57:02.578Z,18.82
2019-02-25T03:58:02.568Z,18.95
2019-02-25T03:59:02.557Z,18.99
2019-02-25T04:00:02.548Z,19.12
2019-02-25T04:01:02.537Z,19.30
2019-02-25T04:02:02.527Z,19.35
2019-02-25T04:03:02.521Z,19.37
2019-02-25T04:04:02.503Z,19.32
2019-02-25T04:05:02.496Z,19.45
2019-02-25T04:06:02.482Z,19.45
2019-02-25T04:07:02.473Z,19.41
2019-02-25T04:08:02.462Z,19.42
2019-02-25T04:09:02.455Z,19.39
2019-02-25T04:10:02.440Z,19.42
2019-02-25T04:11:02.433Z,19.31
2019-02-25T04:12:02.421Z,19.46
2019-02-25T04:13:02.410Z,19.41
2019-02-25T04:14:02.399Z,19.34
2019-02-25T04:15:02.389Z,19.24
2019-02-25T04:16:02.377Z,19.23
2019-02-25T04:17:02.431Z,19.30
2019-02-25T04:18:02.359Z,19.35
2019-02-25T04:19:02.348Z,19.35
2019-02-25T04:20:02.336Z,19.39
2019-02-25T04:21:02.325Z,19.41
2019-02-25T04:22:02.315Z,19.45
2019-02-25T04:23:02.305Z,19.45
2019-02-25T04:24:02.295Z,19.46
2019-02-25T04:25:02.282Z,19.46
2019-02-25T04:26:02.270Z,19.54
2019-02-25T04:27:02.265Z,19.64
2019-02-25T04:28:02.250Z,19.64
2019-02-25T04:29:02.243Z,19.76
2019-02-25T04:30:02.228Z,19.79
2019-02-25T04:31:02.219Z,19.87
2019-02-25T04:32:02.206Z,19.88
2019-02-25T04:33:02.200Z,19.90
2019-02-25T04:34:02.185Z,19.94
2019-02-25T04:35:02.184Z,19.95
2019-02-25T04:36:02.164Z,19.98
2019-02-25T04:37:02.153Z,20.00
2019-02-25T04:38:03.059Z,20.05
2019-02-25T04:39:02.135Z,20.10
2019-02-25T04:40:02.125Z,19.94
2019-02-25T04:41:02.118Z,19.68
2019-02-25T04:42:02.105Z,19.56
2019-02-25T04:43:02.091Z,19.60
2019-02-25T04:44:02.079Z,19.68
2019-02-25T04:45:02.068Z,19.71
2019-02-25T04:46:02.059Z,19.79
2019-02-25T04:47:02.050Z,19.72
2019-02-25T04:48:02.040Z,19.67
2019-02-25T04:49:02.033Z,19.56
2019-02-25T04:50:02.014Z,19.42
2019-02-25T04:51:02.007Z,19.42
2019-02-25T04:52:01.995Z,19.41
2019-02-25T04:53:02.091Z,19.38
2019-02-25T04:54:01.975Z,19.45
2019-02-25T04:55:01.963Z,19.42
2019-02-25T04:56:01.954Z,19.41
2019-02-25T04:57:01.940Z,19.39
2019-02-25T04:58:01.934Z,19.53
2019-02-25T04:59:01.921Z,19.53
2019-02-25T05:00:01.921Z,19.53
2019-02-25T05:01:01.905Z,19.57
2019-02-25T05:02:02.426Z,19.69
2019-02-25T05:03:01.878Z,19.78
2019-02-25T05:04:01.872Z,19.78
2019-02-25T05:05:01.859Z,19.78
2019-02-25T05:06:01.863Z,19.76
2019-02-25T05:07:01.836Z,19.84
2019-02-25T05:08:01.823Z,19.68
2019-02-25T05:09:01.812Z,19.41
2019-02-25T05:10:01.802Z,19.37
2019-02-25T05:11:01.791Z,19.45
2019-02-25T05:12:01.786Z,19.59
2019-02-25T05:13:01.771Z,19.76
2019-02-25T05:14:01.755Z,19.84
2019-02-25T05:15:01.745Z,19.98
2019-02-25T05:16:01.740Z,19.97
2019-02-25T05:17:01.725Z,19.98
2019-02-25T05:18:01.722Z,19.88
2019-02-25T05:19:01.713Z,19.62
2019-02-25T05:20:01.700Z,19.42
2019-02-25T05:21:01.684Z,19.35
2019-02-25T05:22:01.677Z,19.42
2019-02-25T05:23:01.665Z,19.27
2019-02-25T05:24:01.649Z,19.20
2019-02-25T05:25:01.642Z,19.10
2019-02-25T05:26:01.628Z,19.04
2019-02-25T05:27:01.619Z,19.01
2019-02-25T05:28:01.606Z,18.95
2019-02-25T05:29:01.600Z,18.90
2019-02-25T05:30:01.592Z,18.91
2019-02-25T05:31:01.577Z,18.90
2019-02-25T05:32:01.573Z,18.84
2019-02-25T05:33:01.560Z,18.79
2019-02-25T05:34:01.544Z,18.76
2019-02-25T05:35:01.535Z,18.73
2019-02-25T05:36:01.540Z,18.64
2019-02-25T05:37:01.526Z,18.64
2019-02-25T05:38:01.503Z,18.57
2019-02-25T05:39:01.495Z,18.72
2019-02-25T05:40:01.482Z,18.62
2019-02-25T05:41:01.676Z,18.65
2019-02-25T05:42:01.464Z,18.61
2019-02-25T05:43:01.465Z,18.62
2019-02-25T05:44:01.444Z,18.62
2019-02-25T05:45:01.437Z,18.64
2019-02-25T05:46:01.414Z,18.62
2019-02-25T05:47:01.402Z,18.57
2019-02-25T05:48:01.395Z,18.55
2019-02-25T05:49:01.382Z,18.55
2019-02-25T05:50:01.370Z,18.58
2019-02-25T05:51:01.361Z,18.50
2019-02-25T05:52:01.347Z,18.55
2019-02-25T05:53:01.443Z,18.49
2019-02-25T05:54:01.429Z,18.52
2019-02-25T05:55:01.317Z,18.42
2019-02-25T05:56:01.306Z,18.39
2019-02-25T05:57:01.293Z,18.46
2019-02-25T05:58:01.281Z,18.55
2019-02-25T05:59:01.279Z,18.43
2019-02-25T06:00:01.267Z,18.44
2019-02-25T06:01:01.254Z,18.47
2019-02-25T06:02:01.239Z,18.49
2019-02-25T06:03:01.236Z,18.47
2019-02-25T06:04:01.218Z,18.47
2019-02-25T06:05:01.205Z,18.44
2019-02-25T06:06:01.198Z,18.50
2019-02-25T06:07:01.186Z,18.33
2019-02-25T06:08:01.176Z,18.44
2019-02-25T06:09:01.163Z,18.34
2019-02-25T06:10:01.153Z,18.44
2019-02-25T06:11:01.143Z,18.39
2019-02-25T06:12:01.132Z,18.46
2019-02-25T06:13:01.119Z,18.42
2019-02-25T06:14:01.109Z,18.40
2019-02-25T06:15:01.101Z,18.44
2019-02-25T06:16:01.088Z,18.46
2019-02-25T06:17:01.075Z,18.42
2019-02-25T06:18:01.106Z,18.44
2019-02-25T06:19:01.054Z,18.39
2019-02-25T06:20:01.043Z,18.40
2019-02-25T06:21:01.034Z,18.27
2019-02-25T06:22:01.024Z,18.11
2019-02-25T06:23:01.013Z,18.06
2019-02-25T06:24:01.006Z,18.09
2019-02-25T06:25:00.993Z,18.09
2019-02-25T06:26:00.981Z,17.51
2019-02-25T06:27:00.973Z,17.00
2019-02-25T06:28:00.960Z,16.14
2019-02-25T06:29:00.951Z,15.32
2019-02-25T06:30:00.940Z,15.05
2019-02-25T06:31:00.928Z,15.02
2019-02-25T06:32:00.917Z,15.32
2019-02-25T06:33:00.907Z,15.40
2019-02-25T06:34:00.896Z,15.22
2019-02-25T06:35:00.885Z,15.35
2019-02-25T06:36:00.879Z,15.52
2019-02-25T06:37:00.867Z,15.67
2019-02-25T06:38:00.856Z,15.92
2019-02-25T06:39:00.845Z,15.97
2019-02-25T06:40:00.833Z,16.36
2019-02-25T06:41:00.825Z,16.61
2019-02-25T06:42:00.808Z,16.98
2019-02-25T06:43:00.801Z,17.23
2019-02-25T06:44:00.787Z,17.38
2019-02-25T06:45:00.852Z,17.59
2019-02-25T06:46:00.765Z,17.66
2019-02-25T06:47:00.754Z,17.80
2019-02-25T06:48:00.742Z,17.73
2019-02-25T06:49:00.733Z,17.66
2019-02-25T06:50:00.719Z,17.15
2019-02-25T06:51:00.716Z,16.62
2019-02-25T06:52:00.699Z,16.40
2019-02-25T06:53:00.695Z,16.43
2019-02-25T06:54:00.930Z,16.61
2019-02-25T06:55:00.668Z,16.80
2019-02-25T06:56:00.661Z,16.98
2019-02-25T06:57:00.649Z,17.22
2019-02-25T06:58:00.643Z,17.25
2019-02-25T06:59:00.624Z,17.46
2019-02-25T07:00:00.620Z,17.62
2019-02-25T07:01:00.606Z,17.36
2019-02-25T07:02:00.596Z,16.85
2019-02-25T07:03:00.583Z,16.29
2019-02-25T07:04:00.573Z,15.76
2019-02-25T07:05:00.564Z,15.66
2019-02-25T07:06:00.551Z,15.79
2019-02-25T07:07:00.539Z,16.03
2019-02-25T07:08:00.528Z,15.72
2019-02-25T07:09:00.623Z,15.49
2019-02-25T07:10:00.510Z,15.74
2019-02-25T07:11:00.505Z,16.15
2019-02-25T07:12:00.489Z,16.51
2019-02-25T07:13:00.478Z,16.79
2019-02-25T07:14:00.465Z,16.82
2019-02-25T07:15:00.455Z,17.06
2019-02-25T07:16:00.443Z,17.20
2019-02-25T07:17:00.437Z,17.23
2019-02-25T07:18:00.428Z,17.33
2019-02-25T07:19:00.418Z,16.98
2019-02-25T07:20:00.406Z,15.92
2019-02-25T07:21:00.397Z,15.02
2019-02-25T07:22:00.384Z,14.25
2019-02-25T07:23:00.371Z,12.85
2019-02-25T07:24:00.362Z,12.08
2019-02-25T07:25:00.350Z,11.62
2019-02-25T07:26:00.339Z,11.28
2019-02-25T07:27:00.330Z,11.24
2019-02-25T07:28:00.319Z,11.34
2019-02-25T07:29:00.312Z,11.46
2019-02-25T07:30:00.328Z,11.47
2019-02-25T07:31:00.286Z,11.44
2019-02-25T07:32:00.281Z,11.36
2019-02-25T07:33:00.265Z,11.34
2019-02-25T07:34:00.253Z,11.38
2019-02-25T07:35:00.357Z,11.38
2019-02-25T07:36:00.329Z,11.71
2019-02-25T07:37:00.227Z,12.26
2019-02-25T07:38:00.209Z,12.92
2019-02-25T07:39:00.197Z,13.09
2019-02-25T07:40:00.302Z,12.74
2019-02-25T07:41:00.179Z,12.44
2019-02-25T07:42:00.166Z,12.37
2019-02-25T07:43:00.162Z,12.25
2019-02-25T07:44:00.143Z,12.04
2019-02-25T07:45:00.310Z,11.93
2019-02-25T07:46:00.120Z,12.75
2019-02-25T07:47:00.109Z,13.42
2019-02-25T07:48:00.098Z,13.14
2019-02-25T07:49:00.099Z,12.28
2019-02-25T07:50:00.096Z,11.61
2019-02-25T07:51:00.072Z,11.21
2019-02-25T07:52:00.071Z,11.10
2019-02-25T07:53:00.045Z,11.09
2019-02-25T07:54:00.037Z,11.10
2019-02-25T07:55:00.270Z,11.01
2019-02-25T07:56:02.600Z,11.01
2019-02-25T07:56:59.999Z,11.05
2019-02-25T07:57:59.990Z,11.18
2019-02-25T07:58:59.980Z,10.97
2019-02-25T07:59:59.966Z,11.31
2019-02-25T08:00:59.960Z,11.46
2019-02-25T08:01:59.951Z,12.10
2019-02-25T08:02:59.934Z,12.50
2019-02-25T08:03:59.928Z,12.89
2019-02-25T08:04:59.914Z,13.39
2019-02-25T08:05:59.906Z,13.32
2019-02-25T08:06:59.892Z,13.12
2019-02-25T08:07:59.882Z,13.06
2019-02-25T08:08:59.871Z,13.42
2019-02-25T08:09:59.861Z,13.95
2019-02-25T08:10:59.845Z,14.38
2019-02-25T08:11:59.841Z,14.92
2019-02-25T08:12:59.824Z,15.20
2019-02-25T08:13:59.820Z,15.35
2019-02-25T08:14:59.806Z,14.86
2019-02-25T08:15:59.793Z,14.32
2019-02-25T08:16:59.782Z,14.19
2019-02-25T08:17:59.777Z,13.94
2019-02-25T08:18:59.758Z,13.70
2019-02-25T08:19:59.752Z,13.55
2019-02-25T08:20:59.739Z,13.24
2019-02-25T08:21:59.729Z,13.12
2019-02-25T08:22:59.715Z,13.37
2019-02-25T08:23:59.706Z,13.72
2019-02-25T08:24:59.695Z,13.76
2019-02-25T08:25:59.687Z,14.00
2019-02-25T08:26:59.674Z,13.88
2019-02-25T08:27:59.662Z,14.13
2019-02-25T08:28:59.653Z,14.00
2019-02-25T08:29:59.641Z,13.73
2019-02-25T08:30:59.630Z,13.48
2019-02-25T08:31:59.618Z,13.53
2019-02-25T08:32:59.608Z,13.36
2019-02-25T08:33:59.603Z,13.58
2019-02-25T08:34:59.587Z,13.73
2019-02-25T08:35:59.573Z,14.90
2019-02-25T08:37:02.413Z,15.68
2019-02-25T08:37:59.553Z,16.40
2019-02-25T08:38:59.543Z,16.62
2019-02-25T08:39:59.534Z,16.22
2019-02-25T08:40:59.523Z,15.92
2019-02-25T08:41:59.511Z,15.56
2019-02-25T08:42:59.497Z,15.10
2019-02-25T08:43:59.490Z,15.20
2019-02-25T08:44:59.477Z,15.16
2019-02-25T08:45:59.465Z,15.35
2019-02-25T08:46:59.455Z,15.54
2019-02-25T08:47:59.445Z,15.38
2019-02-25T08:48:59.435Z,15.44
2019-02-25T08:49:59.431Z,15.08
2019-02-25T08:50:59.415Z,15.00
2019-02-25T08:51:59.448Z,14.98
2019-02-25T08:52:59.389Z,15.22
2019-02-25T08:53:59.380Z,15.07
2019-02-25T08:54:59.471Z,14.77
2019-02-25T08:55:59.456Z,14.31
2019-02-25T08:56:59.347Z,13.93
2019-02-25T08:57:59.434Z,13.37
2019-02-25T08:58:59.326Z,13.06
2019-02-25T08:59:59.417Z,12.70
2019-02-25T09:00:59.308Z,12.51
2019-02-25T09:01:59.295Z,12.15
2019-02-25T09:02:59.281Z,12.05
2019-02-25T09:03:59.278Z,12.69
2019-02-25T09:04:59.258Z,13.37
2019-02-25T09:05:59.248Z,14.49
2019-02-25T09:06:59.238Z,15.76
2019-02-25T09:07:59.238Z,16.85
2019-02-25T09:08:59.215Z,17.38
2019-02-25T09:09:59.205Z,17.70
2019-02-25T09:10:59.198Z,18.09
2019-02-25T09:11:59.184Z,18.46
2019-02-25T09:12:59.173Z,18.59
2019-02-25T09:13:59.160Z,18.90
2019-02-25T09:14:59.149Z,19.05
2019-02-25T09:15:59.150Z,19.13
2019-02-25T09:16:59.131Z,19.10
2019-02-25T09:17:59.120Z,19.19
2019-02-25T09:18:59.107Z,19.23
2019-02-25T09:19:59.098Z,19.28
2019-02-25T09:20:59.098Z,19.17
2019-02-25T09:21:59.080Z,19.23
2019-02-25T09:22:59.066Z,19.34
2019-02-25T09:23:59.057Z,19.34
2019-02-25T09:24:59.043Z,19.35
2019-02-25T09:25:59.035Z,19.39
2019-02-25T09:26:59.024Z,19.69
2019-02-25T09:27:59.010Z,19.93
2019-02-25T09:28:59.003Z,19.95
2019-02-25T09:29:58.993Z,19.79
2019-02-25T09:30:58.977Z,19.78
2019-02-25T09:31:58.973Z,19.71
2019-02-25T09:32:58.960Z,19.59
2019-02-25T09:33:58.952Z,19.45
2019-02-25T09:34:58.941Z,19.47
2019-02-25T09:35:58.928Z,19.75
2019-02-25T09:36:58.917Z,19.88
2019-02-25T09:37:58.908Z,20.06
2019-02-25T09:38:58.898Z,20.20
2019-02-25T09:39:58.888Z,20.28
2019-02-25T09:40:58.872Z,20.33
2019-02-25T09:41:58.863Z,20.20
2019-02-25T09:42:58.850Z,20.23
2019-02-25T09:43:58.840Z,20.43
2019-02-25T09:44:58.832Z,20.42
2019-02-25T09:45:58.823Z,20.20
2019-02-25T09:46:58.809Z,19.72
2019-02-25T09:47:58.796Z,19.37
2019-02-25T09:48:58.784Z,19.17
2019-02-25T09:49:58.776Z,19.13
2019-02-25T09:50:58.770Z,18.95
2019-02-25T09:51:58.751Z,18.84
2019-02-25T09:52:58.742Z,18.72
2019-02-25T09:53:58.737Z,18.65
2019-02-25T09:54:58.726Z,18.57
2019-02-25T09:55:59.011Z,18.54
2019-02-25T09:56:58.703Z,18.49
2019-02-25T09:57:58.690Z,18.55
2019-02-25T09:58:58.682Z,18.47
2019-02-25T09:59:58.668Z,18.57
2019-02-25T10:00:58.658Z,18.52
2019-02-25T10:01:58.650Z,18.64
2019-02-25T10:02:58.637Z,18.57
2019-02-25T10:03:58.628Z,18.61
2019-02-25T10:04:58.613Z,18.65
2019-02-25T10:05:58.610Z,18.57
2019-02-25T10:07:02.312Z,18.59
2019-02-25T10:07:58.583Z,18.55
2019-02-25T10:08:58.573Z,18.47
2019-02-25T10:09:58.563Z,18.59
2019-02-25T10:10:58.559Z,18.59
2019-02-25T10:11:58.544Z,18.61
2019-02-25T10:12:58.530Z,18.54
2019-02-25T10:13:58.522Z,18.57
2019-02-25T10:14:58.511Z,18.64
2019-02-25T10:15:58.499Z,18.57
2019-02-25T10:16:58.493Z,18.68
2019-02-25T10:17:58.481Z,18.55
2019-02-25T10:18:58.472Z,18.57
2019-02-25T10:19:58.456Z,18.65
2019-02-25T10:20:58.449Z,18.67
2019-02-25T10:21:58.438Z,18.57
2019-02-25T10:22:58.427Z,18.67
2019-02-25T10:23:58.415Z,18.52
2019-02-25T10:24:58.513Z,18.55
2019-02-25T10:25:58.398Z,18.47
2019-02-25T10:26:58.386Z,18.33
2019-02-25T10:27:58.373Z,18.34
2019-02-25T10:28:58.368Z,18.34
2019-02-25T10:29:58.356Z,18.33
2019-02-25T10:30:58.352Z,18.23
2019-02-25T10:32:00.021Z,18.24
2019-02-25T10:32:58.324Z,18.36
2019-02-25T10:33:58.312Z,18.27
2019-02-25T10:34:58.303Z,18.28
2019-02-25T10:35:58.292Z,18.34
2019-02-25T10:36:58.278Z,18.34
2019-02-25T10:37:58.274Z,18.34
2019-02-25T10:38:58.262Z,18.37
2019-02-25T10:39:58.247Z,18.37
2019-02-25T10:40:59.394Z,18.34
2019-02-25T10:41:59.581Z,18.36
2019-02-25T10:42:58.215Z,18.26
2019-02-25T10:44:00.133Z,18.39
2019-02-25T10:44:58.201Z,18.39
2019-02-25T10:45:58.186Z,18.42
2019-02-25T10:46:58.175Z,18.43
2019-02-25T10:47:58.908Z,18.40
2019-02-25T10:48:59.187Z,18.37
2019-02-25T10:49:58.710Z,18.44
2019-02-25T10:50:58.130Z,18.39
2019-02-25T10:51:58.123Z,18.40
2019-02-25T10:53:03.446Z,18.33
2019-02-25T10:53:58.104Z,18.36
2019-02-25T10:54:58.302Z,18.39
2019-02-25T10:55:58.080Z,18.44
2019-02-25T10:56:58.173Z,18.37
2019-02-25T10:57:59.759Z,18.36
2019-02-25T10:58:59.763Z,18.28
2019-02-25T10:59:58.038Z,18.37
2019-02-25T11:00:58.031Z,18.40
2019-02-25T11:01:58.021Z,18.30
2019-02-25T11:02:58.319Z,18.28
2019-02-25T11:03:57.998Z,18.30
2019-02-25T11:04:57.992Z,18.24
2019-02-25T11:05:58.579Z,18.27
2019-02-25T11:06:58.908Z,18.30
2019-02-25T11:07:57.962Z,18.26
2019-02-25T11:08:57.945Z,18.24
2019-02-25T11:09:57.936Z,18.24
2019-02-25T11:10:57.924Z,18.33
2019-02-25T11:11:59.973Z,18.28
2019-02-25T11:12:59.744Z,18.27
2019-02-25T11:13:58.851Z,18.23
2019-02-25T11:14:57.901Z,18.27
2019-02-25T11:15:57.887Z,18.12
2019-02-25T11:16:57.892Z,17.66
2019-02-25T11:17:57.856Z,17.10
2019-02-25T11:18:58.673Z,16.79
2019-02-25T11:19:58.690Z,16.40
2019-02-25T11:20:58.992Z,16.33
2019-02-25T11:21:57.829Z,16.36
2019-02-25T11:22:57.807Z,16.54
2019-02-25T11:23:59.085Z,16.76
2019-02-25T11:24:57.892Z,16.96
2019-02-25T11:25:58.299Z,17.18
2019-02-25T11:26:59.056Z,17.40
2019-02-25T11:27:57.763Z,17.41
2019-02-25T11:28:57.743Z,17.51
2019-02-25T11:29:57.735Z,17.57
2019-02-25T11:30:57.728Z,17.51
2019-02-25T11:31:57.717Z,17.54
2019-02-25T11:32:59.593Z,17.50
2019-02-25T11:33:58.600Z,17.59
2019-02-25T11:34:57.684Z,17.59
2019-02-25T11:35:57.664Z,17.65
2019-02-25T11:37:24.498Z,17.66
2019-02-25T11:38:23.758Z,17.57
2019-02-25T11:39:22.121Z,17.53
2019-02-25T11:40:22.121Z,17.40
2019-02-25T11:41:22.088Z,17.32
2019-02-25T11:42:22.075Z,17.47
2019-02-25T11:43:22.069Z,17.17
2019-02-25T11:44:23.431Z,16.29
2019-02-25T11:45:22.047Z,16.12
2019-02-25T11:46:22.032Z,15.97
2019-02-25T11:47:22.023Z,15.88
2019-02-25T11:48:22.706Z,15.64
2019-02-25T11:49:22.000Z,15.37
2019-02-25T11:50:21.993Z,15.04
2019-02-25T11:51:21.978Z,14.44
2019-02-25T11:52:21.969Z,14.14
2019-02-25T11:53:21.960Z,14.14
2019-02-25T11:54:21.952Z,14.42
2019-02-25T11:55:22.069Z,14.62
2019-02-25T11:56:21.929Z,14.47
2019-02-25T11:57:22.217Z,14.79
2019-02-25T11:58:21.905Z,15.27
2019-02-25T11:59:21.897Z,15.67
2019-02-25T12:00:21.887Z,15.44
2019-02-25T12:01:21.877Z,15.42
2019-02-25T12:02:25.593Z,15.41
2019-02-25T12:03:21.853Z,15.38
2019-02-25T12:04:21.842Z,15.66
2019-02-25T12:05:21.830Z,15.84
2019-02-25T12:06:21.819Z,15.76
2019-02-25T12:07:21.808Z,15.25
2019-02-25T12:08:21.800Z,14.79
2019-02-25T12:09:21.788Z,14.77
2019-02-25T12:10:21.778Z,14.93
2019-02-25T12:11:21.767Z,14.53
2019-02-25T12:12:21.758Z,13.83
2019-02-25T12:13:21.746Z,14.00
2019-02-25T12:14:21.733Z,14.13
2019-02-25T12:15:21.726Z,14.49
2019-02-25T12:16:21.840Z,14.87
2019-02-25T12:17:21.704Z,15.07
2019-02-25T12:18:21.693Z,15.29
2019-02-25T12:19:21.682Z,15.51
2019-02-25T12:20:21.681Z,15.59
2019-02-25T12:21:21.660Z,15.85
2019-02-25T12:22:21.650Z,15.85
2019-02-25T12:23:21.639Z,15.78
2019-02-25T12:24:21.626Z,15.96
2019-02-25T12:25:21.616Z,16.06
2019-02-25T12:26:21.608Z,16.09
2019-02-25T12:27:21.596Z,16.12
2019-02-25T12:28:21.585Z,16.11
2019-02-25T12:29:21.574Z,16.16
2019-02-25T12:30:21.564Z,16.34
2019-02-25T12:31:21.552Z,16.26
2019-02-25T12:32:21.542Z,16.18
2019-02-25T12:33:21.531Z,16.11
2019-02-25T12:34:21.518Z,15.99
2019-02-25T12:35:21.510Z,15.75
2019-02-25T12:36:21.500Z,15.66
2019-02-25T12:37:21.493Z,15.72
2019-02-25T12:38:21.479Z,15.74
2019-02-25T12:39:21.465Z,15.88
2019-02-25T12:40:21.555Z,15.85
2019-02-25T12:41:21.444Z,15.86
2019-02-25T12:42:21.430Z,15.92
2019-02-25T12:43:21.420Z,15.82
2019-02-25T12:44:21.410Z,15.78
2019-02-25T12:45:21.401Z,15.81
2019-02-25T12:46:21.388Z,15.86
2019-02-25T12:47:21.376Z,15.76
2019-02-25T12:48:22.787Z,15.72
2019-02-25T12:49:21.356Z,15.64
2019-02-25T12:50:21.347Z,15.57
2019-02-25T12:51:21.336Z,15.40
2019-02-25T12:52:21.324Z,15.44
2019-02-25T12:53:21.310Z,15.64
2019-02-25T12:54:21.306Z,15.56
2019-02-25T12:55:21.289Z,15.63
2019-02-25T12:56:21.280Z,15.66
2019-02-25T12:57:21.370Z,15.60
2019-02-25T12:58:21.359Z,15.40
2019-02-25T12:59:21.244Z,15.35
2019-02-25T13:00:21.240Z,15.40
2019-02-25T13:01:21.225Z,15.38
2019-02-25T13:02:21.217Z,15.37
2019-02-25T13:03:21.205Z,15.10
2019-02-25T13:04:21.193Z,15.16
2019-02-25T13:05:21.179Z,15.27
2019-02-25T13:06:21.173Z,15.12
2019-02-25T13:07:21.163Z,15.05
2019-02-25T13:08:21.147Z,15.11
2019-02-25T13:09:21.236Z,15.25
2019-02-25T13:10:21.128Z,15.40
2019-02-25T13:11:21.147Z,15.48
2019-02-25T13:12:21.106Z,15.45
2019-02-25T13:13:21.099Z,15.41
2019-02-25T13:14:21.083Z,15.56
2019-02-25T13:15:21.073Z,15.60
2019-02-25T13:16:21.062Z,15.37
2019-02-25T13:17:21.051Z,15.52